Time;durP1;ratioP1;P1;durP2;ratioP2;P2;SDS_P1;SDS_P2;PMS_P1;PMS_P2;Temp;Humidity;BMP_temperature;BMP_pressure;BME280_temperature;BME280_humidity;BME280_pressure;Samples;Min_cycle;Max_cycle;Signal;HPM_P1;HPM_P2
2022/12/14 00:01:35;;;;;;;;;;;;;;;-4.12;66.60;96914.69;5000397;28;19938;-69
2022/12/14 00:04:03;;;;;;;;;;;;;;;-4.00;66.58;96899.47;4986466;28;19925;-72
2022/12/14 00:06:33;;;;;;;;;;;;;;;-4.06;66.82;96900.44;5001949;28;20269;-72
2022/12/14 00:09:01;;;;;;;;;;;;;;;-3.98;66.68;96894.75;4984569;28;19980;-72
2022/12/14 00:11:30;;;;;;;;;;;;;;;-4.04;66.10;96896.50;4970952;28;19932;-71
2022/12/14 00:13:58;;;;;;;;;;;;;;;-4.38;67.03;96895.69;4991830;28;19980;-71
2022/12/14 00:16:33;;;;;;;;;;;;;;;-4.22;66.78;96899.41;5007743;28;19932;-71
2022/12/14 00:19:04;;;;;;;;;;;;;;;-4.10;66.51;96900.13;4987502;28;19929;-72
2022/12/14 00:21:32;;;;;;;;;;;;;;;-4.08;66.79;96902.53;4992886;28;19961;-72
2022/12/14 00:24:01;;;;;;;;;;;;;;;-4.01;66.24;96898.66;4992304;28;19972;-72
2022/12/14 00:26:30;;;;;;;;;;;;;;;-4.16;66.19;96894.97;4983675;28;19933;-68
2022/12/14 00:29:00;;;;;;;;;;;;;;;-4.20;66.90;96889.38;4985823;28;20048;-72
2022/12/14 00:31:30;;;;;;;;;;;;;;;-4.08;65.57;96886.63;4985559;28;20000;-71
2022/12/14 00:33:59;;;;;;;;;;;;;;;-4.19;66.49;96872.41;4991551;28;19930;-68
2022/12/14 00:39:22;;;;;;;;;;;;;;;-4.19;65.72;96882.22;4969619;28;19969;-71
2022/12/14 00:41:51;;;;;;;;;;;;;;;-4.10;65.60;96875.44;4967837;28;20021;-72
2022/12/14 00:47:11;;;;;;;;;;;;;;;-4.14;66.54;96877.00;4980696;28;19930;-72
2022/12/14 00:49:39;;;;;;;;;;;;;;;-4.18;66.89;96870.56;4982415;28;19925;-71
2022/12/14 00:52:11;;;;;;;;;;;;;;;-4.13;65.72;96878.59;4983637;28;19926;-63
2022/12/14 00:54:41;;;;;;;;;;;;;;;-4.13;65.71;96870.63;5000664;28;19952;-65
2022/12/14 00:57:09;;;;;;;;;;;;;;;-4.35;66.19;96852.81;4984422;28;19933;-72
2022/12/14 00:59:38;;;;;;;;;;;;;;;-4.22;66.10;96852.47;4979386;28;19925;-64
2022/12/14 01:02:06;;;;;;;;;;;;;;;-4.19;66.46;96848.53;4976308;28;20356;-70
2022/12/14 01:04:35;;;;;;;;;;;;;;;-4.24;66.05;96851.91;4963176;28;20333;-70
2022/12/14 01:07:30;;;;;;;;;;;;;;;-4.21;66.29;96863.88;4982117;28;20502;-68
2022/12/14 01:10:24;;;;;;;;;;;;;;;-4.19;66.26;96863.66;4983308;28;19971;-71
2022/12/14 01:12:55;;;;;;;;;;;;;;;-4.23;66.35;96866.78;4973701;28;19933;-72
2022/12/14 01:15:25;;;;;;;;;;;;;;;-4.18;66.94;96868.72;4969877;28;19926;-68
2022/12/14 01:17:54;;;;;;;;;;;;;;;-4.10;66.58;96868.31;4984202;28;19938;-72
2022/12/14 01:20:22;;;;;;;;;;;;;;;-4.11;66.68;96881.78;4986144;28;19965;-72
2022/12/14 01:22:55;;;;;;;;;;;;;;;-4.07;66.88;96886.38;4976730;28;19933;-72
2022/12/14 01:25:48;;;;;;;;;;;;;;;-3.94;66.35;96898.53;4978486;28;20428;-67
2022/12/14 01:28:16;;;;;;;;;;;;;;;-4.02;66.27;96897.06;4984814;28;19930;-71
2022/12/14 01:33:36;;;;;;;;;;;;;;;-4.02;65.87;96901.56;4983360;28;20442;-72
2022/12/14 01:36:05;;;;;;;;;;;;;;;-4.01;66.41;96892.56;4982014;28;20435;-72
2022/12/14 01:38:59;;;;;;;;;;;;;;;-4.06;66.09;96889.81;4975352;28;20377;-69
2022/12/14 01:41:28;;;;;;;;;;;;;;;-4.12;65.91;96881.00;5003715;28;20024;-71
2022/12/14 01:43:57;;;;;;;;;;;;;;;-4.13;66.26;96873.28;4983993;28;19936;-68
2022/12/14 01:46:26;;;;;;;;;;;;;;;-4.16;66.82;96877.22;4989258;28;19930;-71
2022/12/14 01:48:56;;;;;;;;;;;;;;;-4.10;66.28;96856.88;4991043;28;19934;-72
2022/12/14 01:51:24;;;;;;;;;;;;;;;-4.08;66.15;96852.94;4981334;28;19934;-71
2022/12/14 01:53:52;;;;;;;;;;;;;;;-3.99;65.76;96848.03;4985192;28;19980;-72
2022/12/14 01:56:46;;;;;;;;;;;;;;;-4.15;66.14;96839.06;4987143;28;19930;-68
2022/12/14 01:59:15;;;;;;;;;;;;;;;-4.02;65.89;96837.91;4985092;28;20497;-72
2022/12/14 02:02:08;;;;;;;;;;;;;;;-4.02;65.94;96841.34;4992927;28;19926;-71
2022/12/14 02:04:37;;;;;;;;;;;;;;;-4.05;66.36;96833.06;4992889;28;19929;-71
2022/12/14 02:07:05;;;;;;;;;;;;;;;-3.95;65.30;96839.31;4988042;28;19930;-72
2022/12/14 02:09:36;;;;;;;;;;;;;;;-3.92;65.09;96838.03;4996251;28;19957;-70
2022/12/14 02:12:07;;;;;;;;;;;;;;;-4.15;65.95;96832.94;4992018;28;19964;-70
2022/12/14 02:14:38;;;;;;;;;;;;;;;-3.93;66.45;96831.13;4985895;28;19936;-72
2022/12/14 02:19:58;;;;;;;;;;;;;;;-3.98;64.84;96826.56;4980437;28;19933;-69
2022/12/14 02:22:45;;;;;;;;;;;;;;;-3.81;65.50;96834.47;4989521;28;19938;-70
2022/12/14 02:25:17;;;;;;;;;;;;;;;-4.03;65.28;96823.84;4952260;28;19926;-72
2022/12/14 02:27:55;;;;;;;;;;;;;;;-3.97;65.65;96830.81;4981486;28;19937;-71
2022/12/14 02:30:24;;;;;;;;;;;;;;;-3.99;65.70;96834.78;4993197;28;19936;-67
2022/12/14 02:32:56;;;;;;;;;;;;;;;-3.97;65.40;96833.47;4986021;28;20379;-71
2022/12/14 02:35:31;;;;;;;;;;;;;;;-4.04;65.97;96837.34;5001195;28;20344;-65
2022/12/14 02:38:01;;;;;;;;;;;;;;;-4.10;65.88;96841.78;4992268;28;19926;-71
2022/12/14 02:40:33;;;;;;;;;;;;;;;-4.01;65.57;96835.00;4985571;28;19938;-71
2022/12/14 02:43:04;;;;;;;;;;;;;;;-3.87;65.34;96830.16;4985582;28;19973;-72
2022/12/14 02:45:35;;;;;;;;;;;;;;;-4.14;66.01;96813.34;4989808;28;19930;-71
2022/12/14 02:48:28;;;;;;;;;;;;;;;-4.02;66.15;96811.38;4989358;28;20463;-65
2022/12/14 02:50:59;;;;;;;;;;;;;;;-3.95;65.95;96801.38;4991840;28;19964;-70
2022/12/14 02:56:24;;;;;;;;;;;;;;;-3.95;66.03;96782.81;4982510;28;19926;-72
2022/12/14 02:58:52;;;;;;;;;;;;;;;-3.90;65.88;96782.88;4970948;28;19930;-72
2022/12/14 03:01:22;;;;;;;;;;;;;;;-3.93;65.61;96779.94;4992475;28;19933;-72
2022/12/14 03:03:51;;;;;;;;;;;;;;;-3.98;65.46;96775.34;4984390;28;20323;-66
2022/12/14 03:06:24;;;;;;;;;;;;;;;-3.87;65.22;96763.81;4989378;28;19981;-72
2022/12/14 03:08:54;;;;;;;;;;;;;;;-4.04;65.07;96766.53;4997097;28;19980;-72
2022/12/14 03:11:30;;;;;;;;;;;;;;;-4.11;65.18;96759.78;4989881;28;19926;-72
2022/12/14 03:13:58;;;;;;;;;;;;;;;-3.87;64.95;96749.75;4980734;28;19961;-71
2022/12/14 03:16:29;;;;;;;;;;;;;;;-3.93;65.70;96745.44;4985579;28;19933;-71
2022/12/14 03:18:58;;;;;;;;;;;;;;;-4.07;65.45;96745.00;4971487;28;19968;-71
2022/12/14 03:21:52;;;;;;;;;;;;;;;-4.09;65.90;96747.09;4988981;28;19933;-70
2022/12/14 03:24:21;;;;;;;;;;;;;;;-3.93;65.68;96745.44;4982558;28;19973;-72
2022/12/14 03:27:14;;;;;;;;;;;;;;;-3.81;65.91;96744.25;4974431;28;19933;-70
2022/12/14 03:29:43;;;;;;;;;;;;;;;-3.92;65.91;96747.84;4975412;28;19961;-71
2022/12/14 03:32:16;;;;;;;;;;;;;;;-3.85;65.14;96745.78;4983498;28;19933;-71
2022/12/14 03:34:46;;;;;;;;;;;;;;;-4.11;66.46;96743.88;5007023;28;19965;-71
2022/12/14 03:37:15;;;;;;;;;;;;;;;-4.00;65.58;96737.63;4983444;28;19976;-71
2022/12/14 03:39:43;;;;;;;;;;;;;;;-3.89;65.43;96736.72;4982593;28;20220;-71
2022/12/14 03:48:06;;;;;;;;;;;;;;;-3.82;64.69;96715.31;4982552;28;19930;-71
2022/12/14 03:50:35;;;;;;;;;;;;;;;-3.93;64.97;96719.69;5007551;28;20267;-71
2022/12/14 03:53:06;;;;;;;;;;;;;;;-3.86;65.44;96703.59;4975126;28;19957;-71
2022/12/14 03:55:36;;;;;;;;;;;;;;;-3.78;65.31;96703.97;4997082;28;19925;-71
2022/12/14 03:58:10;;;;;;;;;;;;;;;-3.78;65.20;96701.31;4969959;28;20281;-69
2022/12/14 04:00:40;;;;;;;;;;;;;;;-3.82;64.98;96707.34;4975321;28;19926;-71
2022/12/14 04:03:11;;;;;;;;;;;;;;;-3.80;65.26;96707.88;4985897;28;19997;-71
2022/12/14 04:05:40;;;;;;;;;;;;;;;-3.90;64.65;96700.63;4995596;28;20052;-71
2022/12/14 04:08:17;;;;;;;;;;;;;;;-3.88;65.16;96701.19;4991701;28;19937;-72
2022/12/14 04:19:12;;;;;;;;;;;;;;;-3.91;65.70;96706.97;4983279;28;19964;-71
2022/12/14 04:21:41;;;;;;;;;;;;;;;-3.83;65.68;96709.22;4984636;28;19933;-71
2022/12/14 04:26:58;;;;;;;;;;;;;;;-3.89;64.99;96694.25;4977181;28;19989;-70
2022/12/14 04:32:15;;;;;;;;;;;;;;;-3.94;64.73;96691.56;4986297;28;19933;-72
2022/12/14 04:34:46;;;;;;;;;;;;;;;-3.97;65.20;96692.06;4986448;28;19934;-72
2022/12/14 04:37:15;;;;;;;;;;;;;;;-3.93;66.04;96693.16;4980687;28;19940;-72
2022/12/14 04:39:44;;;;;;;;;;;;;;;-3.83;66.35;96692.47;4991937;28;19973;-72
2022/12/14 04:42:13;;;;;;;;;;;;;;;-3.87;65.95;96684.22;4975353;28;19932;-72
2022/12/14 04:44:42;;;;;;;;;;;;;;;-3.80;64.89;96674.19;4985295;28;19934;-71
2022/12/14 04:47:10;;;;;;;;;;;;;;;-3.77;65.68;96671.06;4980925;28;19926;-72
2022/12/14 04:49:42;;;;;;;;;;;;;;;-3.81;65.38;96656.69;4973141;28;19933;-72
2022/12/14 04:52:12;;;;;;;;;;;;;;;-4.04;65.29;96651.66;4977004;28;19926;-72
2022/12/14 04:54:41;;;;;;;;;;;;;;;-4.02;65.15;96646.91;4983865;28;19932;-68
2022/12/14 04:57:11;;;;;;;;;;;;;;;-3.93;65.28;96656.03;4996859;28;19926;-72
2022/12/14 04:59:48;;;;;;;;;;;;;;;-3.87;65.76;96654.22;4985920;28;20275;-72
2022/12/14 05:02:19;;;;;;;;;;;;;;;-3.98;65.39;96648.81;4986861;28;19930;-71
2022/12/14 05:05:15;;;;;;;;;;;;;;;-3.91;64.46;96647.81;4980175;28;19985;-72
2022/12/14 05:08:11;;;;;;;;;;;;;;;-3.98;65.10;96642.72;4984084;28;20096;-71
2022/12/14 05:10:41;;;;;;;;;;;;;;;-3.98;64.60;96630.25;4990260;28;19940;-72
2022/12/14 05:13:11;;;;;;;;;;;;;;;-3.91;65.36;96622.06;4993852;28;19933;-72
2022/12/14 05:15:41;;;;;;;;;;;;;;;-3.84;64.41;96622.66;4983793;28;19941;-72
2022/12/14 05:18:09;;;;;;;;;;;;;;;-3.82;65.06;96631.19;4992624;28;20407;-71
2022/12/14 05:20:37;;;;;;;;;;;;;;;-3.78;65.00;96628.81;4991690;28;19933;-71
2022/12/14 05:23:05;;;;;;;;;;;;;;;-3.63;65.10;96622.84;4988392;28;19927;-72
2022/12/14 05:25:35;;;;;;;;;;;;;;;-3.67;65.09;96619.94;4994312;28;19929;-70
2022/12/14 05:28:03;;;;;;;;;;;;;;;-3.77;64.69;96612.66;4992191;28;19926;-72
2022/12/14 05:30:58;;;;;;;;;;;;;;;-3.85;64.92;96613.09;4986963;28;19932;-71
2022/12/14 05:33:26;;;;;;;;;;;;;;;-3.75;65.70;96613.22;4988001;28;19949;-70
2022/12/14 05:39:11;;;;;;;;;;;;;;;-3.80;65.13;96602.53;4976900;28;19926;-68
2022/12/14 05:41:41;;;;;;;;;;;;;;;-3.76;64.85;96603.66;4995992;28;19935;-72
2022/12/14 05:44:10;;;;;;;;;;;;;;;-3.93;65.32;96591.56;4992842;28;19925;-71
2022/12/14 05:46:38;;;;;;;;;;;;;;;-4.04;65.74;96578.19;4976950;28;20307;-72
2022/12/14 05:49:06;;;;;;;;;;;;;;;-4.09;65.91;96578.13;4977176;28;19934;-65
2022/12/14 05:51:34;;;;;;;;;;;;;;;-4.11;66.32;96579.44;4972659;28;19948;-72
2022/12/14 05:54:02;;;;;;;;;;;;;;;-4.00;65.73;96581.91;4986566;28;20306;-66
2022/12/14 05:56:30;;;;;;;;;;;;;;;-3.85;65.91;96589.22;4991134;28;20334;-67
2022/12/14 05:59:01;;;;;;;;;;;;;;;-3.71;65.37;96582.47;4991338;28;19933;-71
2022/12/14 06:01:54;;;;;;;;;;;;;;;-3.70;65.20;96584.06;5000826;28;19944;-70
2022/12/14 06:04:23;;;;;;;;;;;;;;;-3.79;64.12;96582.91;4983001;28;19976;-72
2022/12/14 06:06:51;;;;;;;;;;;;;;;-3.81;65.19;96579.72;4988410;28;19941;-73
2022/12/14 06:09:44;;;;;;;;;;;;;;;-3.78;64.51;96568.63;4982244;28;20294;-72
2022/12/14 06:12:15;;;;;;;;;;;;;;;-3.76;64.28;96585.06;4982951;28;19926;-72
2022/12/14 06:14:45;;;;;;;;;;;;;;;-3.60;64.32;96585.22;4995869;28;20454;-72
2022/12/14 06:17:13;;;;;;;;;;;;;;;-3.49;63.75;96576.25;5004508;28;19980;-70
2022/12/14 06:19:41;;;;;;;;;;;;;;;-3.46;63.65;96581.06;4986586;28;20392;-69
2022/12/14 06:22:10;;;;;;;;;;;;;;;-3.55;63.92;96578.09;4992266;28;19934;-71
2022/12/14 06:24:38;;;;;;;;;;;;;;;-3.49;64.07;96581.56;4993577;28;20015;-72
2022/12/14 06:27:06;;;;;;;;;;;;;;;-3.30;64.16;96579.31;4983561;28;19932;-70
2022/12/14 06:29:34;;;;;;;;;;;;;;;-3.29;63.52;96578.28;4977725;28;19926;-69
2022/12/14 06:32:09;;;;;;;;;;;;;;;-3.24;62.67;96568.47;4981755;28;19976;-65
2022/12/14 06:34:37;;;;;;;;;;;;;;;-3.33;62.87;96554.06;4991002;28;21985;-65
2022/12/14 06:37:09;;;;;;;;;;;;;;;-3.19;62.91;96547.28;4971546;28;19926;-72
2022/12/14 06:39:37;;;;;;;;;;;;;;;-3.29;62.91;96549.84;4992743;28;19926;-69
2022/12/14 06:42:05;;;;;;;;;;;;;;;-3.26;63.44;96559.16;4993302;28;20298;-73
2022/12/14 06:44:34;;;;;;;;;;;;;;;-3.36;63.26;96559.88;4984370;28;19932;-71
2022/12/14 06:47:02;;;;;;;;;;;;;;;-3.22;63.27;96560.25;4996282;28;19984;-68
2022/12/14 06:49:31;;;;;;;;;;;;;;;-3.22;64.29;96554.94;4987613;28;19965;-71
2022/12/14 06:52:02;;;;;;;;;;;;;;;-3.15;63.71;96558.16;4983748;28;19926;-70
2022/12/14 06:54:30;;;;;;;;;;;;;;;-3.04;63.31;96564.34;4980267;28;20394;-71
2022/12/14 06:56:59;;;;;;;;;;;;;;;-3.03;63.75;96561.44;4977657;28;20037;-71
2022/12/14 06:59:27;;;;;;;;;;;;;;;-3.21;63.31;96549.38;4974779;28;20379;-71
2022/12/14 07:01:55;;;;;;;;;;;;;;;-3.06;63.25;96547.84;4985727;28;19926;-71
2022/12/14 07:04:24;;;;;;;;;;;;;;;-3.13;63.91;96552.63;4999509;28;19926;-62
2022/12/14 07:06:53;;;;;;;;;;;;;;;-3.21;63.60;96551.22;4992497;28;19976;-71
2022/12/14 07:09:24;;;;;;;;;;;;;;;-3.20;63.50;96563.44;4989775;28;19933;-66
2022/12/14 07:11:52;;;;;;;;;;;;;;;-3.27;63.64;96558.34;4990735;28;19926;-71
2022/12/14 07:14:45;;;;;;;;;;;;;;;-3.24;64.15;96562.38;4980885;28;19944;-65
2022/12/14 07:17:15;;;;;;;;;;;;;;;-3.12;63.56;96548.91;4979698;28;19969;-71
2022/12/14 07:19:43;;;;;;;;;;;;;;;-3.07;63.35;96530.31;4979588;28;19934;-71
2022/12/14 07:22:12;;;;;;;;;;;;;;;-3.16;62.97;96512.22;4987691;28;20411;-70
2022/12/14 07:24:41;;;;;;;;;;;;;;;-3.12;62.90;96493.91;4992060;28;20024;-72
2022/12/14 07:27:09;;;;;;;;;;;;;;;-3.11;63.04;96497.34;5007275;28;19936;-71
2022/12/14 07:29:38;;;;;;;;;;;;;;;-3.09;62.79;96508.50;4991844;28;19933;-71
2022/12/14 07:32:09;;;;;;;;;;;;;;;-3.02;62.67;96511.75;4987974;28;19969;-68
2022/12/14 07:35:03;;;;;;;;;;;;;;;-3.13;62.28;96510.91;4987237;28;19926;-71
2022/12/14 07:37:58;;;;;;;;;;;;;;;-3.01;61.54;96516.00;4992566;28;19933;-71
2022/12/14 07:40:27;;;;;;;;;;;;;;;-3.10;61.98;96521.00;4994293;28;19933;-70
2022/12/14 07:42:56;;;;;;;;;;;;;;;-3.08;62.73;96508.28;5007028;28;19926;-71
2022/12/14 07:45:25;;;;;;;;;;;;;;;-3.08;62.84;96513.59;4992205;28;19925;-71
2022/12/14 07:47:54;;;;;;;;;;;;;;;-2.95;61.89;96522.94;4984376;28;19926;-68
2022/12/14 07:50:22;;;;;;;;;;;;;;;-3.14;62.21;96527.06;4975363;28;19930;-70
2022/12/14 07:53:18;;;;;;;;;;;;;;;-3.04;61.26;96529.78;4991841;28;19936;-71
2022/12/14 07:55:47;;;;;;;;;;;;;;;-3.05;62.59;96523.69;4991561;28;19944;-71
2022/12/14 07:58:16;;;;;;;;;;;;;;;-2.89;61.49;96527.22;4974408;28;19934;-71
2022/12/14 08:00:48;;;;;;;;;;;;;;;-2.86;61.45;96516.06;4995180;28;19960;-70
2022/12/14 08:03:18;;;;;;;;;;;;;;;-2.88;61.32;96504.88;4983501;28;19926;-70
2022/12/14 08:05:47;;;;;;;;;;;;;;;-2.75;62.16;96507.09;5014264;28;19925;-65
2022/12/14 08:08:16;;;;;;;;;;;;;;;-2.77;60.91;96503.06;4989763;28;20378;-70
2022/12/14 08:10:50;;;;;;;;;;;;;;;-2.84;60.52;96508.63;4980994;28;19981;-71
2022/12/14 08:13:18;;;;;;;;;;;;;;;-2.70;60.83;96515.06;4984686;28;20443;-71
2022/12/14 08:15:46;;;;;;;;;;;;;;;-2.57;61.45;96508.47;4987106;28;19926;-70
2022/12/14 08:18:15;;;;;;;;;;;;;;;-2.57;61.23;96523.63;4980311;28;19985;-71
2022/12/14 08:20:43;;;;;;;;;;;;;;;-2.51;59.92;96501.28;4979164;28;20376;-70
2022/12/14 08:23:43;;;;;;;;;;;;;;;-2.59;60.61;96499.16;4983203;28;19941;-71
2022/12/14 08:26:36;;;;;;;;;;;;;;;-2.72;60.76;96495.91;5000051;28;19934;-70
2022/12/14 08:29:06;;;;;;;;;;;;;;;-2.80;60.49;96483.13;4990570;28;19934;-70
2022/12/14 08:31:35;;;;;;;;;;;;;;;-2.67;61.01;96477.31;4983647;28;19962;-71
2022/12/14 08:34:05;;;;;;;;;;;;;;;-2.57;59.73;96462.47;4978236;28;20037;-71
2022/12/14 08:36:34;;;;;;;;;;;;;;;-2.38;59.83;96463.56;4978323;28;19926;-70
2022/12/14 08:39:03;;;;;;;;;;;;;;;-2.45;60.10;96463.00;4990791;28;19965;-70
2022/12/14 08:41:32;;;;;;;;;;;;;;;-2.44;60.31;96444.16;4973951;28;19929;-70
2022/12/14 08:44:25;;;;;;;;;;;;;;;-2.57;59.88;96438.53;4980269;28;20054;-63
2022/12/14 08:46:54;;;;;;;;;;;;;;;-2.33;60.29;96422.88;4980561;28;19958;-63
2022/12/14 08:52:20;;;;;;;;;;;;;;;-2.25;60.45;96415.16;4979996;28;19961;-63
2022/12/14 08:54:48;;;;;;;;;;;;;;;-2.20;59.34;96407.19;4986596;28;19937;-63
2022/12/14 08:57:19;;;;;;;;;;;;;;;-2.07;60.44;96410.38;4977961;28;20292;-63
2022/12/14 08:59:49;;;;;;;;;;;;;;;-2.20;58.94;96396.53;5002247;28;19933;-63
2022/12/14 09:02:28;;;;;;;;;;;;;;;-2.17;60.25;96406.66;4987947;28;19926;-63
2022/12/14 09:05:22;;;;;;;;;;;;;;;-2.09;59.15;96407.19;4982298;28;20338;-63
2022/12/14 09:07:50;;;;;;;;;;;;;;;-2.17;59.02;96406.66;4985284;28;20360;-63
2022/12/14 09:10:19;;;;;;;;;;;;;;;-2.23;58.94;96397.09;4967266;28;20283;-63
2022/12/14 09:12:50;;;;;;;;;;;;;;;-2.42;60.18;96407.44;4981223;28;20012;-63
2022/12/14 09:15:20;;;;;;;;;;;;;;;-2.25;59.65;96407.19;4988839;28;19926;-64
2022/12/14 09:17:49;;;;;;;;;;;;;;;-2.06;60.62;96427.94;4986337;28;19930;-63
2022/12/14 09:26:03;;;;;;;;;;;;;;;-2.01;60.41;96414.63;4985030;28;19938;-63
2022/12/14 09:28:32;;;;;;;;;;;;;;;-1.89;60.74;96415.16;4983845;28;20280;-64
2022/12/14 09:31:02;;;;;;;;;;;;;;;-1.97;59.40;96405.03;4982938;28;19934;-64
2022/12/14 09:33:32;;;;;;;;;;;;;;;-1.91;59.81;96390.69;4976230;28;19933;-64
2022/12/14 09:36:26;;;;;;;;;;;;;;;-1.89;59.73;96380.56;4986533;28;19937;-64
2022/12/14 09:38:57;;;;;;;;;;;;;;;-2.07;58.79;96383.78;4992814;28;20322;-64
2022/12/14 09:41:30;;;;;;;;;;;;;;;-2.09;58.39;96386.69;4989879;28;19926;-63
2022/12/14 09:44:01;;;;;;;;;;;;;;;-1.86;59.83;96377.38;4984102;28;20469;-63
2022/12/14 09:46:35;;;;;;;;;;;;;;;-1.93;59.81;96400.78;4968708;28;19926;-64
2022/12/14 09:49:04;;;;;;;;;;;;;;;-1.97;59.46;96405.03;5001192;28;20024;-64
2022/12/14 09:51:37;;;;;;;;;;;;;;;-2.15;60.44;96398.41;4969833;28;19925;-64
2022/12/14 09:54:06;;;;;;;;;;;;;;;-2.12;60.68;96409.31;5003012;28;20348;-64
2022/12/14 09:56:35;;;;;;;;;;;;;;;-2.12;61.66;96405.88;4989189;28;20363;-63
2022/12/14 09:59:10;;;;;;;;;;;;;;;-2.24;62.72;96403.44;4987844;28;19930;-63
2022/12/14 10:01:49;;;;;;;;;;;;;;;-2.45;62.85;96399.19;4992148;28;19925;-63
2022/12/14 10:04:40;;;;;;;;;;;;;;;-2.37;63.38;96393.34;4990503;28;19934;-64
2022/12/14 10:07:41;;;;;;;;;;;;;;;-2.37;64.09;96402.13;4995853;28;19933;-63
2022/12/14 10:10:14;;;;;;;;;;;;;;;-2.33;65.20;96413.03;4991526;28;19942;-63
2022/12/14 10:12:47;;;;;;;;;;;;;;;-2.51;66.99;96419.66;4974901;28;19968;-64
2022/12/14 10:15:19;;;;;;;;;;;;;;;-2.37;67.94;96417.28;4993407;28;20001;-63
2022/12/14 10:18:02;;;;;;;;;;;;;;;-2.21;69.41;96418.91;4974548;28;20383;-64
2022/12/14 10:20:34;;;;;;;;;;;;;;;-2.49;70.65;96403.47;4982508;28;19930;-63
2022/12/14 10:23:03;;;;;;;;;;;;;;;-2.27;71.11;96406.66;5008539;28;20044;-64
2022/12/14 10:25:35;;;;;;;;;;;;;;;-2.45;72.28;96393.88;4994465;28;20371;-64
2022/12/14 10:28:04;;;;;;;;;;;;;;;-2.63;72.52;96384.56;4993160;28;19960;-63
2022/12/14 10:31:05;;;;;;;;;;;;;;;-2.50;73.28;96367.31;4987425;28;19930;-63
2022/12/14 10:33:33;;;;;;;;;;;;;;;-2.69;74.98;96351.84;4970682;28;20021;-63
2022/12/14 10:36:08;;;;;;;;;;;;;;;-2.61;74.36;96337.25;4974795;28;19926;-63
2022/12/14 10:38:40;;;;;;;;;;;;;;;-2.41;75.02;96339.09;4986123;28;20422;-63
2022/12/14 10:41:24;;;;;;;;;;;;;;;-2.47;75.25;96334.84;4974081;28;19930;-64
2022/12/14 10:44:19;;;;;;;;;;;;;;;-2.54;74.75;96321.03;4954448;28;20009;-64
2022/12/14 10:46:50;;;;;;;;;;;;;;;-2.39;74.12;96321.03;4980400;28;19952;-63
2022/12/14 10:49:26;;;;;;;;;;;;;;;-2.53;75.26;96334.06;4970817;28;19934;-63
2022/12/14 10:52:00;;;;;;;;;;;;;;;-2.54;74.94;96326.34;4969256;28;20372;-63
2022/12/14 10:54:30;;;;;;;;;;;;;;;-2.53;75.47;96311.97;4967525;28;19993;-63
2022/12/14 10:59:51;;;;;;;;;;;;;;;-2.66;74.73;96287.53;4983084;28;20029;-63
2022/12/14 11:02:37;;;;;;;;;;;;;;;-2.37;74.52;96294.94;4972085;28;19930;-64
2022/12/14 11:05:13;;;;;;;;;;;;;;;-2.22;73.82;96291.47;4971570;28;19926;-63
2022/12/14 11:07:44;;;;;;;;;;;;;;;-2.50;73.97;96288.31;4969797;28;20277;-64
2022/12/14 11:10:16;;;;;;;;;;;;;;;-2.42;72.64;96277.13;4965855;28;19940;-64
2022/12/14 11:12:53;;;;;;;;;;;;;;;-2.56;73.52;96288.56;4972526;28;20101;-64
2022/12/14 11:15:23;;;;;;;;;;;;;;;-2.46;73.28;96285.91;4974563;28;20308;-64
2022/12/14 11:17:59;;;;;;;;;;;;;;;-2.54;73.26;96281.94;4965203;28;20436;-64
2022/12/14 11:20:29;;;;;;;;;;;;;;;-2.50;73.87;96277.69;4956630;28;19933;-64
2022/12/14 11:23:06;;;;;;;;;;;;;;;-2.25;73.53;96292.00;4985081;28;19985;-64
2022/12/14 11:25:35;;;;;;;;;;;;;;;-2.01;72.77;96293.03;4953458;28;20277;-64
2022/12/14 11:28:17;;;;;;;;;;;;;;;-2.09;72.33;96288.25;4966777;28;20629;-64
2022/12/14 11:30:52;;;;;;;;;;;;;;;-2.20;72.37;96276.81;4971167;28;19930;-64
2022/12/14 11:33:22;;;;;;;;;;;;;;;-2.09;72.84;96280.25;4984807;28;20377;-64
2022/12/14 11:35:52;;;;;;;;;;;;;;;-2.32;73.38;96271.00;4977407;28;20029;-64
2022/12/14 11:38:47;;;;;;;;;;;;;;;-2.12;72.48;96270.97;4984292;28;19937;-64
2022/12/14 11:41:20;;;;;;;;;;;;;;;-2.16;72.14;96264.59;4984828;28;20000;-64
2022/12/14 11:43:59;;;;;;;;;;;;;;;-2.11;72.78;96272.56;4989026;28;19941;-64
2022/12/14 11:46:38;;;;;;;;;;;;;;;-2.15;73.14;96270.69;4980595;28;19940;-64
2022/12/14 11:49:22;;;;;;;;;;;;;;;-2.18;72.99;96273.91;4986492;28;19926;-64
2022/12/14 11:52:02;;;;;;;;;;;;;;;-2.24;74.15;96267.78;4973434;28;19926;-64
2022/12/14 11:54:32;;;;;;;;;;;;;;;-1.94;74.37;96271.44;4979225;28;19937;-65
2022/12/14 11:57:02;;;;;;;;;;;;;;;-1.86;74.29;96268.22;4984247;28;19926;-64
2022/12/14 11:59:32;;;;;;;;;;;;;;;-1.71;73.77;96265.47;4971842;28;20435;-64
2022/12/14 12:02:27;;;;;;;;;;;;;;;-1.66;73.06;96278.78;4982810;28;19930;-65
2022/12/14 12:07:51;;;;;;;;;;;;;;;-1.55;72.98;96276.88;4981937;28;19972;-64
2022/12/14 12:10:22;;;;;;;;;;;;;;;-1.51;73.29;96277.13;4998994;28;19940;-64
2022/12/14 12:12:53;;;;;;;;;;;;;;;-1.54;72.98;96273.16;4970597;28;19987;-65
2022/12/14 12:15:23;;;;;;;;;;;;;;;-1.95;73.75;96264.53;4969124;28;20348;-65
2022/12/14 12:17:52;;;;;;;;;;;;;;;-1.69;73.88;96274.00;4981323;28;19926;-65
2022/12/14 12:20:23;;;;;;;;;;;;;;;-1.59;73.54;96276.63;4984764;28;19940;-65
2022/12/14 12:22:52;;;;;;;;;;;;;;;-1.64;73.23;96276.66;4979441;28;19969;-65
2022/12/14 12:28:15;;;;;;;;;;;;;;;-1.93;74.72;96267.72;4987886;28;20263;-64
2022/12/14 12:30:48;;;;;;;;;;;;;;;-1.95;74.57;96270.66;4984434;28;19952;-64
2022/12/14 12:33:28;;;;;;;;;;;;;;;-1.88;74.55;96265.03;4977318;28;19940;-64
2022/12/14 12:36:22;;;;;;;;;;;;;;;-2.09;75.28;96258.19;4992036;28;20379;-63
2022/12/14 12:38:55;;;;;;;;;;;;;;;-1.87;74.81;96248.78;4979568;28;20364;-66
2022/12/14 12:44:21;;;;;;;;;;;;;;;-1.80;74.77;96247.72;4978340;28;20032;-65
2022/12/14 12:46:55;;;;;;;;;;;;;;;-1.95;74.65;96252.03;4995610;28;20025;-65
2022/12/14 12:49:43;;;;;;;;;;;;;;;-2.24;75.46;96256.34;4996684;28;20299;-64
2022/12/14 12:52:16;;;;;;;;;;;;;;;-2.00;75.00;96256.56;4985928;28;20611;-65
2022/12/14 12:54:47;;;;;;;;;;;;;;;-1.82;74.79;96263.94;4991745;28;19934;-65
2022/12/14 12:57:17;;;;;;;;;;;;;;;-1.67;74.30;96250.56;4980855;28;20391;-65
2022/12/14 12:59:45;;;;;;;;;;;;;;;-1.66;74.54;96238.03;4978958;28;19930;-65
2022/12/14 13:02:18;;;;;;;;;;;;;;;-1.62;73.63;96241.75;4999097;28;19937;-65
2022/12/14 13:08:05;;;;;;;;;;;;;;;-1.60;74.46;96245.75;4967890;28;19934;-65
2022/12/14 13:10:36;;;;;;;;;;;;;;;-1.63;73.83;96248.94;4977305;28;19926;-65
2022/12/14 13:13:12;;;;;;;;;;;;;;;-1.61;74.93;96248.66;4988307;28;19957;-65
2022/12/14 13:15:42;;;;;;;;;;;;;;;-1.71;74.14;96254.03;4965070;28;20029;-65
2022/12/14 13:18:13;;;;;;;;;;;;;;;-1.77;74.46;96255.94;4993264;28;19933;-65
2022/12/14 13:21:02;;;;;;;;;;;;;;;-1.71;74.20;96243.38;4986885;28;19934;-65
2022/12/14 13:23:31;;;;;;;;;;;;;;;-1.74;74.26;96243.97;4982511;28;19927;-65
2022/12/14 13:26:21;;;;;;;;;;;;;;;-1.71;73.98;96244.19;4983965;28;19933;-65
2022/12/14 13:29:12;;;;;;;;;;;;;;;-1.73;74.29;96259.66;4981552;28;19937;-65
2022/12/14 13:32:09;;;;;;;;;;;;;;;-1.51;73.75;96256.59;4973216;28;20450;-66
2022/12/14 13:34:41;;;;;;;;;;;;;;;-1.56;73.55;96263.84;4990613;28;20451;-65
2022/12/14 13:37:21;;;;;;;;;;;;;;;-1.51;73.54;96259.28;4989224;28;19932;-65
2022/12/14 13:40:04;;;;;;;;;;;;;;;-1.64;73.54;96254.56;4980582;28;19926;-66
2022/12/14 13:42:35;;;;;;;;;;;;;;;-1.78;74.75;96249.03;4985740;28;20215;-65
2022/12/14 13:45:15;;;;;;;;;;;;;;;-1.79;74.78;96258.06;4988442;28;20359;-66
2022/12/14 13:47:44;;;;;;;;;;;;;;;-1.64;74.45;96260.69;4981380;28;19934;-65
2022/12/14 13:50:18;;;;;;;;;;;;;;;-1.71;74.55;96264.69;4969393;28;19973;-65
2022/12/14 13:53:05;;;;;;;;;;;;;;;-1.65;74.58;96260.94;4987022;28;19933;-64
2022/12/14 13:55:34;;;;;;;;;;;;;;;-1.61;74.95;96260.13;4978354;28;19926;-65
2022/12/14 13:58:06;;;;;;;;;;;;;;;-1.49;74.46;96278.47;4986877;28;20024;-64
2022/12/14 14:00:56;;;;;;;;;;;;;;;-1.73;74.47;96272.97;4990549;28;20209;-65
2022/12/14 14:03:45;;;;;;;;;;;;;;;-1.94;75.42;96271.44;4997068;28;19926;-65
2022/12/14 14:06:21;;;;;;;;;;;;;;;-1.88;75.92;96275.66;4986404;28;19988;-64
2022/12/14 14:08:51;;;;;;;;;;;;;;;-1.72;74.90;96287.84;5004021;28;20323;-64
2022/12/14 14:11:40;;;;;;;;;;;;;;;-1.65;74.41;96285.72;4984936;28;20032;-64
2022/12/14 14:14:14;;;;;;;;;;;;;;;-1.73;75.06;96278.28;4981342;28;19926;-65
2022/12/14 14:17:10;;;;;;;;;;;;;;;-1.53;74.94;96281.94;4992684;28;19926;-65
2022/12/14 14:19:39;;;;;;;;;;;;;;;-1.54;75.05;96283.81;4979500;28;19981;-64
2022/12/14 14:22:19;;;;;;;;;;;;;;;-1.59;74.92;96278.50;4967579;28;20411;-65